createdAt,value
2022-08-19T14:49:09.421Z,38.91
2022-08-19T14:51:37.329Z,38.31
2022-08-19T14:54:04.771Z,38.15
2022-08-19T14:56:32.368Z,38.18
2022-08-19T14:59:01.502Z,37.99
2022-08-19T15:01:29.378Z,37.86
2022-08-19T15:03:56.991Z,37.28
2022-08-19T15:06:25.268Z,37.48
2022-08-19T15:08:53.757Z,37.38
2022-08-19T15:11:23.912Z,37.46
2022-08-19T15:13:51.259Z,37.57
2022-08-19T15:16:19.601Z,37.15
2022-08-19T15:18:50.608Z,37.47
2022-08-19T15:21:27.508Z,37.12
2022-08-19T15:23:57.360Z,37.17
2022-08-19T15:26:26.666Z,37.09
2022-08-19T15:28:54.119Z,37.04
2022-08-19T15:31:28.176Z,37.12
2022-08-19T15:33:58.016Z,36.90
2022-08-19T15:36:26.688Z,36.94
2022-08-19T15:38:55.529Z,36.91
2022-08-19T15:41:27.779Z,36.72
2022-08-19T15:44:03.235Z,36.90
2022-08-19T15:46:33.357Z,36.67
2022-08-19T15:49:00.713Z,36.76
2022-08-19T15:51:30.123Z,37.12
2022-08-19T15:53:58.776Z,37.01
2022-08-19T15:56:47.421Z,37.17
2022-08-19T15:59:47.356Z,37.13
2022-08-19T16:02:36.978Z,37.28
2022-08-19T16:05:26.749Z,37.41
2022-08-19T16:07:54.568Z,37.71
2022-08-19T16:10:27.049Z,37.62
2022-08-19T16:12:57.142Z,37.99
2022-08-19T16:15:29.971Z,38.09
2022-08-19T16:17:58.125Z,38.13
2022-08-19T16:20:27.222Z,38.42
2022-08-19T16:22:57.729Z,38.63
2022-08-19T16:25:28.459Z,38.44
2022-08-19T16:28:06.608Z,38.84
2022-08-19T16:30:40.834Z,38.72
2022-08-19T16:33:10.117Z,38.98
2022-08-19T16:35:37.381Z,39.17
2022-08-19T16:38:06.583Z,39.35
2022-08-19T16:40:34.351Z,39.35
2022-08-19T16:43:02.360Z,39.16
2022-08-19T16:45:29.836Z,39.52
2022-08-19T16:47:57.727Z,39.54
2022-08-19T16:50:39.249Z,39.71
2022-08-19T16:53:12.981Z,39.80
2022-08-19T16:55:40.759Z,39.86
2022-08-19T16:58:13.363Z,40.02
2022-08-19T17:00:41.230Z,40.05
2022-08-19T17:03:14.734Z,40.21
2022-08-19T17:05:44.778Z,40.53
2022-08-19T17:08:18.039Z,40.54
2022-08-19T17:11:02.150Z,40.87
2022-08-19T17:13:34.432Z,41.21
2022-08-19T17:16:02.505Z,41.24
2022-08-19T17:18:32.314Z,41.41
2022-08-19T17:21:00.907Z,41.54
2022-08-19T17:23:37.568Z,41.78
2022-08-19T17:26:17.238Z,41.92
2022-08-19T17:28:50.677Z,42.06
2022-08-19T17:31:20.655Z,42.06
2022-08-19T17:33:49.003Z,42.27
2022-08-19T17:36:23.018Z,42.32
2022-08-19T17:38:52.348Z,42.33
2022-08-19T17:41:19.467Z,42.49
2022-08-19T17:43:47.029Z,42.73
2022-08-19T17:46:18.262Z,42.80
2022-08-19T17:48:52.521Z,43.08
2022-08-19T17:51:22.281Z,43.16
2022-08-19T17:53:51.904Z,43.24
2022-08-19T17:56:19.677Z,43.31
2022-08-19T17:58:54.372Z,43.54
2022-08-19T18:01:44.053Z,43.40
2022-08-19T18:04:18.089Z,43.70
2022-08-19T18:06:52.719Z,43.69
2022-08-19T18:09:23.889Z,43.93
2022-08-19T18:11:54.080Z,44.06
2022-08-19T18:14:32.242Z,44.12
2022-08-19T18:17:10.248Z,44.15
2022-08-19T18:19:40.743Z,44.29
2022-08-19T18:22:11.433Z,44.20
2022-08-19T18:24:41.088Z,44.42
2022-08-19T18:27:09.455Z,44.61
2022-08-19T18:29:37.716Z,44.71
2022-08-19T18:32:15.107Z,44.78
2022-08-19T18:34:44.094Z,44.86
2022-08-19T18:37:12.121Z,44.86
2022-08-19T18:39:58.554Z,45.01
2022-08-19T18:42:44.665Z,44.99
2022-08-19T18:45:33.421Z,45.10
2022-08-19T18:48:26.776Z,45.28
2022-08-19T18:50:58.546Z,45.18
2022-08-19T18:53:29.075Z,45.37
2022-08-19T18:55:57.502Z,45.47
2022-08-19T18:58:33.723Z,45.64
2022-08-19T19:01:02.890Z,45.71
2022-08-19T19:03:30.092Z,45.68
2022-08-19T19:06:01.025Z,45.74
2022-08-19T19:08:28.078Z,45.72
2022-08-19T19:10:56.402Z,45.84
2022-08-19T19:13:28.590Z,45.96
2022-08-19T19:15:56.565Z,46.04
2022-08-19T19:18:24.666Z,46.15
2022-08-19T19:20:52.095Z,46.18
2022-08-19T19:23:20.603Z,46.19
2022-08-19T19:25:50.964Z,46.22
2022-08-19T19:28:24.647Z,46.20
2022-08-19T19:30:54.035Z,46.35
2022-08-19T19:33:21.281Z,46.40
2022-08-19T19:35:48.510Z,46.48
2022-08-19T19:38:15.700Z,46.45
2022-08-19T19:40:42.808Z,46.60
2022-08-19T19:43:10.163Z,46.65
2022-08-19T19:45:38.136Z,46.69
2022-08-19T19:48:05.490Z,46.80
2022-08-19T19:50:32.646Z,47.02
2022-08-19T19:52:59.786Z,46.81
2022-08-19T19:55:28.475Z,47.00
2022-08-19T19:57:57.447Z,47.05
2022-08-19T20:00:25.438Z,47.15
2022-08-19T20:02:55.282Z,47.13
2022-08-19T20:05:23.556Z,47.14
2022-08-19T20:08:12.292Z,47.39
2022-08-19T20:10:42.179Z,47.38
2022-08-19T20:13:13.162Z,47.42
2022-08-19T20:15:43.218Z,47.64
2022-08-19T20:18:13.762Z,47.54
2022-08-19T20:20:42.474Z,47.63
2022-08-19T20:23:10.542Z,47.71
2022-08-19T20:25:38.914Z,47.78
2022-08-19T20:28:05.979Z,47.84
2022-08-19T20:30:33.556Z,47.94
2022-08-19T20:33:04.080Z,48.02
2022-08-19T20:35:31.306Z,48.11
2022-08-19T20:38:08.493Z,48.16
2022-08-19T20:40:37.166Z,48.25
2022-08-19T20:43:08.964Z,48.50
2022-08-19T20:45:36.472Z,48.38
2022-08-19T20:48:05.472Z,48.43
2022-08-19T20:50:34.879Z,48.57
2022-08-19T20:53:13.204Z,48.64
2022-08-19T20:55:44.606Z,48.76
2022-08-19T20:58:16.447Z,48.91
2022-08-19T21:00:45.366Z,48.97
2022-08-19T21:03:17.468Z,48.95
2022-08-19T21:05:45.964Z,49.08
2022-08-19T21:08:14.539Z,49.19
2022-08-19T21:10:42.510Z,49.36
2022-08-19T21:13:10.297Z,49.56
2022-08-19T21:15:42.637Z,49.57
2022-08-19T21:18:12.241Z,49.70
2022-08-19T21:20:40.827Z,49.74
2022-08-19T21:23:11.646Z,50.14
2022-08-19T21:25:39.677Z,50.35
2022-08-19T21:28:07.112Z,50.73
2022-08-19T21:30:34.448Z,50.93
2022-08-19T21:33:03.578Z,51.34
2022-08-19T21:35:31.005Z,51.59
2022-08-19T21:37:58.844Z,51.75
2022-08-19T21:40:26.925Z,52.05
2022-08-19T21:42:54.730Z,52.25
2022-08-19T21:45:22.374Z,52.34
2022-08-19T21:47:50.240Z,52.53
2022-08-19T21:50:18.385Z,52.59
2022-08-19T21:52:46.294Z,52.60
2022-08-19T21:55:14.060Z,52.61
2022-08-19T21:57:42.210Z,52.75
2022-08-19T22:00:18.469Z,52.77
2022-08-19T22:02:45.992Z,52.65
2022-08-19T22:05:13.902Z,52.74
2022-08-19T22:07:42.392Z,52.76
2022-08-19T22:10:10.221Z,52.97
2022-08-19T22:12:45.983Z,52.98
2022-08-19T22:15:15.535Z,53.02
2022-08-19T22:17:45.418Z,52.99
2022-08-19T22:20:16.185Z,52.83
2022-08-19T22:22:50.708Z,52.95
2022-08-19T22:25:30.031Z,53.10
2022-08-19T22:28:01.589Z,53.14
2022-08-19T22:30:33.425Z,53.25
2022-08-19T22:33:04.447Z,53.16
2022-08-19T22:35:36.991Z,53.09
2022-08-19T22:38:06.649Z,53.31
2022-08-19T22:40:38.989Z,53.25
2022-08-19T22:43:16.550Z,53.35
2022-08-19T22:45:44.775Z,53.33
2022-08-19T22:48:14.194Z,53.35
2022-08-19T22:50:43.143Z,53.41
2022-08-19T22:53:11.975Z,53.65
2022-08-19T22:55:39.047Z,53.54
2022-08-19T22:58:06.283Z,53.55
2022-08-19T23:00:33.629Z,53.52
2022-08-19T23:03:01.653Z,53.65
2022-08-19T23:05:29.873Z,53.36
2022-08-19T23:07:58.247Z,53.50
2022-08-19T23:10:28.380Z,53.70
2022-08-19T23:12:57.865Z,53.66
2022-08-19T23:15:28.457Z,53.79
2022-08-19T23:17:58.461Z,53.86
2022-08-19T23:20:29.419Z,53.87
2022-08-19T23:22:57.086Z,54.04
2022-08-19T23:25:27.765Z,53.79
2022-08-19T23:28:13.710Z,54.19
2022-08-19T23:30:44.233Z,54.18
2022-08-19T23:33:46.614Z,54.14
2022-08-19T23:36:20.430Z,54.48
2022-08-19T23:38:50.157Z,54.35
2022-08-19T23:41:19.848Z,54.26
2022-08-19T23:43:47.367Z,54.37
2022-08-19T23:46:28.190Z,54.50
2022-08-19T23:48:56.438Z,54.55
2022-08-19T23:51:26.160Z,54.63
2022-08-19T23:53:53.703Z,54.76
2022-08-19T23:56:21.137Z,55.04
2022-08-19T23:58:48.691Z,54.83
